createdAt,value
2019-04-03T00:00:13.005Z,14.50
2019-04-03T00:05:12.674Z,14.50
2019-04-03T00:10:12.826Z,14.40
2019-04-03T00:15:13.742Z,14.40
2019-04-03T00:20:14.609Z,14.40
2019-04-03T00:25:14.230Z,14.40
2019-04-03T00:30:14.386Z,14.30
2019-04-03T00:35:14.141Z,14.30
2019-04-03T00:40:13.999Z,14.30
2019-04-03T00:45:13.781Z,14.30
2019-04-03T00:50:13.467Z,14.30
2019-04-03T00:55:13.281Z,14.30
2019-04-03T01:00:32.142Z,14.20
2019-04-03T01:05:32.118Z,14.20
2019-04-03T01:10:50.986Z,14.20
2019-04-03T01:15:50.642Z,14.20
2019-04-03T01:20:51.246Z,14.20
2019-04-03T01:25:50.877Z,14.20
2019-04-03T01:30:50.582Z,14.10
2019-04-03T01:35:50.249Z,14.10
2019-04-03T01:40:50.594Z,14.10
2019-04-03T01:45:50.745Z,14.10
2019-04-03T01:50:50.436Z,14.10
2019-04-03T01:55:50.078Z,14.10
2019-04-03T02:00:49.721Z,14.00
2019-04-03T02:05:49.330Z,14.00
2019-04-03T02:10:49.953Z,14.00
2019-04-03T02:15:52.219Z,13.90
2019-04-03T02:20:51.001Z,13.90
2019-04-03T02:25:50.916Z,13.90
2019-04-03T02:30:50.542Z,13.90
2019-04-03T02:35:50.161Z,13.90
2019-04-03T02:40:49.786Z,13.90
2019-04-03T02:45:49.743Z,13.90
2019-04-03T02:51:08.601Z,13.80
2019-04-03T02:56:11.850Z,13.80
2019-04-03T03:01:09.577Z,13.80
2019-04-03T03:06:09.661Z,13.80
2019-04-03T03:11:28.607Z,13.80
2019-04-03T03:16:28.483Z,13.80
2019-04-03T03:21:28.671Z,13.70
2019-04-03T03:26:30.012Z,13.70
2019-04-03T03:31:58.767Z,13.60
2019-04-03T03:36:32.585Z,13.60
2019-04-03T03:41:33.316Z,13.60
2019-04-03T03:46:33.403Z,13.60
2019-04-03T03:51:33.801Z,13.60
2019-04-03T03:56:33.750Z,13.60
2019-04-03T04:01:34.189Z,13.50
2019-04-03T04:06:36.186Z,13.50
2019-04-03T04:11:36.769Z,13.50
2019-04-03T04:16:37.685Z,13.50
2019-04-03T04:21:57.573Z,13.50
2019-04-03T04:26:57.333Z,13.40
2019-04-03T04:31:56.964Z,13.40
2019-04-03T04:36:57.728Z,13.40
2019-04-03T04:41:57.559Z,13.40
2019-04-03T04:46:57.269Z,13.40
2019-04-03T04:51:57.578Z,13.30
2019-04-03T04:56:57.301Z,13.30
2019-04-03T05:01:57.025Z,13.30
2019-04-03T05:06:59.687Z,13.30
2019-04-03T05:11:58.000Z,13.30
2019-04-03T05:16:57.684Z,13.40
2019-04-03T05:21:57.830Z,13.40
2019-04-03T05:26:57.493Z,13.40
2019-04-03T05:31:58.736Z,13.40
2019-04-03T05:36:58.488Z,13.40
2019-04-03T05:41:59.555Z,13.40
2019-04-03T05:47:00.020Z,13.40
2019-04-03T05:51:59.948Z,13.40
2019-04-03T05:56:59.951Z,13.50
2019-04-03T06:01:59.906Z,13.50
2019-04-03T06:07:00.000Z,13.50
2019-04-03T06:11:59.625Z,13.50
2019-04-03T06:16:59.574Z,13.50
2019-04-03T06:21:59.458Z,13.50
2019-04-03T06:26:59.211Z,13.60
2019-04-03T06:31:58.862Z,13.60
2019-04-03T06:36:58.603Z,13.60
2019-04-03T06:42:00.796Z,13.70
2019-04-03T06:47:01.623Z,13.70
2019-04-03T06:52:02.589Z,13.70
2019-04-03T06:57:02.245Z,13.80
2019-04-03T07:02:02.162Z,13.80
2019-04-03T07:07:02.230Z,13.80
2019-04-03T07:12:02.385Z,13.90
2019-04-03T07:17:05.159Z,13.90
2019-04-03T07:22:03.698Z,14.00
2019-04-03T07:27:06.055Z,14.00
2019-04-03T07:32:05.203Z,14.00
2019-04-03T07:37:04.886Z,14.10
2019-04-03T07:42:04.800Z,14.10
2019-04-03T07:47:05.352Z,14.20
2019-04-03T07:52:05.206Z,14.20
2019-04-03T07:57:04.925Z,14.30
2019-04-03T08:02:04.812Z,14.40
2019-04-03T08:07:04.605Z,14.40
2019-04-03T08:12:04.585Z,14.50
2019-04-03T08:17:04.461Z,14.50
2019-04-03T08:22:04.417Z,14.60
2019-04-03T08:27:07.760Z,14.70
2019-04-03T08:32:06.044Z,14.70
2019-04-03T08:37:05.916Z,14.70
2019-04-03T08:42:05.906Z,14.80
2019-04-03T08:47:05.583Z,14.80
2019-04-03T08:52:06.119Z,14.80
2019-04-03T08:57:05.929Z,14.80
2019-04-03T09:02:05.844Z,14.80
2019-04-03T09:07:07.273Z,14.80
2019-04-03T09:12:07.937Z,14.80
2019-04-03T09:17:07.938Z,14.70
2019-04-03T09:22:07.653Z,14.70
2019-04-03T09:27:09.806Z,14.70
2019-04-03T09:32:09.997Z,14.70
2019-04-03T09:37:09.718Z,14.80
2019-04-03T09:42:09.669Z,14.70
2019-04-03T09:47:09.578Z,14.70
2019-04-03T09:52:10.725Z,14.70
2019-04-03T09:57:10.836Z,14.70
2019-04-03T10:02:10.493Z,14.80
2019-04-03T10:07:10.528Z,14.80
2019-04-03T10:12:10.375Z,14.70
2019-04-03T10:17:10.519Z,14.70
2019-04-03T10:22:10.290Z,14.80
2019-04-03T10:27:11.197Z,14.80
2019-04-03T10:32:12.750Z,14.80
2019-04-03T10:37:14.770Z,14.90
2019-04-03T10:42:13.958Z,14.90
2019-04-03T10:47:13.708Z,14.90
2019-04-03T10:52:14.401Z,14.80
2019-04-03T10:57:14.497Z,14.80
2019-04-03T11:02:14.223Z,14.80
2019-04-03T11:07:14.570Z,14.80
2019-04-03T11:12:14.760Z,14.80
2019-04-03T11:17:15.975Z,14.80
2019-04-03T11:22:16.865Z,14.80
2019-04-03T11:27:16.574Z,14.80
2019-04-03T11:32:16.567Z,14.80
2019-04-03T11:37:17.155Z,14.80
2019-04-03T11:42:23.889Z,14.80
2019-04-03T11:47:18.992Z,14.80
2019-04-03T11:52:18.754Z,14.80
2019-04-03T11:57:19.582Z,14.80
2019-04-03T12:02:20.576Z,14.80
2019-04-03T12:07:20.297Z,14.80
2019-04-03T12:12:20.485Z,14.80
2019-04-03T12:17:20.390Z,14.80
2019-04-03T12:22:22.076Z,14.80
2019-04-03T12:27:21.702Z,14.80
2019-04-03T12:32:21.605Z,14.90
2019-04-03T12:37:24.183Z,14.90
2019-04-03T12:42:42.210Z,14.90
2019-04-03T12:47:44.440Z,14.90
2019-04-03T12:52:44.808Z,14.90
2019-04-03T12:57:45.189Z,14.90
2019-04-03T13:02:44.987Z,15.00
2019-04-03T13:07:47.071Z,15.00
2019-04-03T13:13:05.170Z,15.10
2019-04-03T13:18:04.973Z,15.10
2019-04-03T13:23:04.606Z,15.10
2019-04-03T13:28:04.908Z,15.20
2019-04-03T13:33:06.636Z,15.20
2019-04-03T13:38:06.276Z,15.30
2019-04-03T13:43:06.122Z,15.40
2019-04-03T13:48:05.810Z,15.50
2019-04-03T13:53:05.730Z,15.60
2019-04-03T13:58:05.836Z,15.70
2019-04-03T14:03:05.822Z,15.80
2019-04-03T14:08:07.267Z,15.80
2019-04-03T14:13:07.229Z,15.90
2019-04-03T14:18:07.877Z,15.90
2019-04-03T14:23:08.740Z,16.00
2019-04-03T14:28:08.525Z,16.00
2019-04-03T14:33:08.158Z,16.10
2019-04-03T14:38:07.835Z,16.20
2019-04-03T14:43:07.477Z,16.20
2019-04-03T14:48:07.201Z,16.30
2019-04-03T14:53:08.044Z,16.30
2019-04-03T14:58:07.751Z,16.30
2019-04-03T15:03:07.394Z,16.40
2019-04-03T15:08:07.377Z,16.40
2019-04-03T15:13:07.015Z,16.40
2019-04-03T15:18:09.179Z,16.40
2019-04-03T15:23:08.414Z,16.40
2019-04-03T15:28:08.437Z,16.40
2019-04-03T15:33:08.306Z,16.40
2019-04-03T15:38:07.950Z,16.40
2019-04-03T15:43:10.834Z,16.50
2019-04-03T15:48:09.140Z,16.50
2019-04-03T15:53:08.794Z,16.60
2019-04-03T15:58:08.423Z,16.60
2019-04-03T16:03:08.342Z,16.60
2019-04-03T16:08:09.802Z,16.60
2019-04-03T16:13:09.506Z,16.50
2019-04-03T16:18:09.515Z,16.50
2019-04-03T16:23:09.206Z,16.60
2019-04-03T16:28:08.817Z,16.60
2019-04-03T16:33:18.925Z,16.60
2019-04-03T16:38:09.761Z,16.50
2019-04-03T16:43:09.458Z,16.50
2019-04-03T16:48:11.122Z,16.50
2019-04-03T16:53:11.185Z,16.50
2019-04-03T16:58:11.260Z,16.50
2019-04-03T17:03:10.995Z,16.50
2019-04-03T17:08:11.282Z,16.50
2019-04-03T17:13:11.268Z,16.50
2019-04-03T17:18:11.114Z,16.50
2019-04-03T17:23:12.823Z,16.50
2019-04-03T17:28:12.879Z,16.50
2019-04-03T17:33:12.650Z,16.50
2019-04-03T17:38:12.303Z,16.50
2019-04-03T17:43:13.084Z,16.40
2019-04-03T17:48:13.420Z,16.40
2019-04-03T17:53:13.060Z,16.40
2019-04-03T17:58:12.750Z,16.40
2019-04-03T18:03:12.365Z,16.30
2019-04-03T18:08:12.017Z,16.30
2019-04-03T18:13:13.062Z,16.20
2019-04-03T18:18:12.680Z,16.20
2019-04-03T18:23:13.678Z,16.10
2019-04-03T18:28:24.962Z,16.00
2019-04-03T18:33:24.593Z,16.00
2019-04-03T18:38:24.210Z,15.90
2019-04-03T18:43:23.849Z,15.80
2019-04-03T18:48:23.514Z,16.10
2019-04-03T18:53:23.177Z,15.80
2019-04-03T18:58:23.818Z,15.70
2019-04-03T19:03:24.383Z,15.50
2019-04-03T19:08:24.991Z,15.30
2019-04-03T19:13:24.877Z,15.30
2019-04-03T19:18:24.534Z,15.10
2019-04-03T19:23:24.177Z,15.00
2019-04-03T19:28:24.386Z,15.00
2019-04-03T19:33:24.014Z,14.80
2019-04-03T19:38:24.110Z,14.70
2019-04-03T19:43:24.450Z,14.60
2019-04-03T19:48:25.671Z,14.50
2019-04-03T19:53:26.280Z,14.40
2019-04-03T19:58:28.764Z,14.40
2019-04-03T20:03:27.551Z,14.40
2019-04-03T20:08:29.665Z,14.40
2019-04-03T20:13:28.605Z,14.30
2019-04-03T20:18:28.248Z,14.10
2019-04-03T20:23:30.143Z,13.90
2019-04-03T20:28:29.436Z,13.80
2019-04-03T20:33:29.445Z,13.80
2019-04-03T20:38:29.451Z,13.80
2019-04-03T20:43:29.101Z,13.80
2019-04-03T20:48:28.825Z,13.70
2019-04-03T20:53:29.549Z,13.70
2019-04-03T20:58:29.473Z,13.70
2019-04-03T21:03:29.113Z,13.70
2019-04-03T21:08:31.451Z,13.60
2019-04-03T21:13:30.152Z,13.40
2019-04-03T21:18:29.812Z,13.20
2019-04-03T21:23:29.709Z,13.10
2019-04-03T21:28:29.349Z,13.10
2019-04-03T21:33:30.720Z,13.00
2019-04-03T21:38:31.202Z,13.10
2019-04-03T21:43:50.379Z,13.10
2019-04-03T21:48:50.041Z,13.20
2019-04-03T21:53:50.622Z,13.30
2019-04-03T21:58:50.599Z,13.30
2019-04-03T22:03:51.403Z,13.50
2019-04-03T22:08:51.860Z,13.60
2019-04-03T22:13:51.565Z,13.60
2019-04-03T22:18:52.906Z,13.40
2019-04-03T22:23:52.709Z,13.40
2019-04-03T22:28:52.640Z,13.40
2019-04-03T22:33:52.269Z,13.60
2019-04-03T22:38:51.966Z,13.60
2019-04-03T22:43:51.970Z,13.60
2019-04-03T22:48:51.592Z,13.60
2019-04-03T22:53:51.509Z,13.60
2019-04-03T22:58:52.932Z,13.50
2019-04-03T23:03:52.584Z,13.50
2019-04-03T23:08:53.816Z,13.50
2019-04-03T23:13:53.973Z,13.50
2019-04-03T23:18:53.623Z,13.50
2019-04-03T23:23:53.236Z,13.50
2019-04-03T23:28:52.876Z,13.50
2019-04-03T23:33:52.497Z,13.60
2019-04-03T23:38:52.410Z,13.70
2019-04-03T23:43:52.033Z,13.80
2019-04-03T23:48:51.680Z,13.90
2019-04-03T23:53:51.598Z,13.90
2019-04-03T23:58:51.205Z,13.80
